Time;durP1;ratioP1;P1;durP2;ratioP2;P2;SDS_P1;SDS_P2;PMS_P1;PMS_P2;Temp;Humidity;BMP_temperature;BMP_pressure;BME280_temperature;BME280_humidity;BME280_pressure;Samples;Min_cycle;Max_cycle;Signal;HPM_P1;HPM_P2
2021/07/08 00:00:49;;;;;;;;;;;9.90;99.90;;;;;;5112410;28;20326;-65
2021/07/08 00:03:15;;;;;;;;;;;9.90;99.90;;;;;;5110147;28;19915;-66
2021/07/08 00:05:43;;;;;;;;;;;10.00;99.90;;;;;;5112202;28;20011;-66
2021/07/08 00:08:10;;;;;;;;;;;10.10;99.90;;;;;;5112390;28;19970;-65
2021/07/08 00:10:39;;;;;;;;;;;10.10;99.90;;;;;;5112723;28;19907;-65
2021/07/08 00:13:06;;;;;;;;;;;10.20;99.90;;;;;;5113036;28;19908;-65
2021/07/08 00:15:33;;;;;;;;;;;10.20;99.90;;;;;;5111773;28;19941;-66
2021/07/08 00:18:00;;;;;;;;;;;10.30;99.90;;;;;;5111396;28;19916;-65
2021/07/08 00:20:28;;;;;;;;;;;10.30;99.90;;;;;;5112444;28;20002;-66
2021/07/08 00:22:54;;;;;;;;;;;10.30;99.90;;;;;;5111306;28;19915;-66
2021/07/08 00:25:22;;;;;;;;;;;10.40;99.90;;;;;;5111889;28;20354;-65
2021/07/08 00:27:49;;;;;;;;;;;10.40;99.90;;;;;;5112139;28;19908;-66
2021/07/08 00:30:16;;;;;;;;;;;10.40;99.90;;;;;;5107119;28;20376;-66
2021/07/08 00:32:43;;;;;;;;;;;10.50;99.90;;;;;;5112348;28;19935;-66
2021/07/08 00:35:10;;;;;;;;;;;10.50;99.90;;;;;;5112180;28;19961;-66
2021/07/08 00:37:37;;;;;;;;;;;10.60;99.90;;;;;;5111273;28;19998;-66
2021/07/08 00:40:05;;;;;;;;;;;10.60;99.90;;;;;;5112049;28;19989;-67
2021/07/08 00:42:31;;;;;;;;;;;10.70;99.90;;;;;;5111955;28;19916;-66
2021/07/08 00:44:58;;;;;;;;;;;10.70;99.90;;;;;;5110557;28;20351;-67
2021/07/08 00:47:25;;;;;;;;;;;10.80;99.90;;;;;;5114687;28;19950;-67
2021/07/08 00:49:51;;;;;;;;;;;10.80;99.90;;;;;;5097358;28;19966;-67
2021/07/08 00:52:19;;;;;;;;;;;10.90;99.90;;;;;;5116061;28;19915;-66
2021/07/08 00:54:46;;;;;;;;;;;10.90;99.90;;;;;;5115537;28;19915;-67
2021/07/08 00:57:13;;;;;;;;;;;11.00;99.90;;;;;;5115703;28;19919;-66
2021/07/08 00:59:44;;;;;;;;;;;11.00;99.90;;;;;;5113344;28;20380;-66
2021/07/08 01:02:14;;;;;;;;;;;11.20;99.90;;;;;;5115591;28;19914;-67
2021/07/08 01:04:44;;;;;;;;;;;11.20;99.90;;;;;;5115427;28;20374;-66
2021/07/08 01:07:13;;;;;;;;;;;11.30;99.90;;;;;;5115706;28;19908;-66
2021/07/08 01:09:40;;;;;;;;;;;11.50;99.90;;;;;;5115371;28;19908;-67
2021/07/08 01:12:07;;;;;;;;;;;11.60;99.90;;;;;;5115579;28;19961;-67
2021/07/08 01:14:34;;;;;;;;;;;11.80;99.90;;;;;;5114093;28;19912;-67
2021/07/08 01:17:01;;;;;;;;;;;12.20;99.90;;;;;;5115616;28;19908;-66
2021/07/08 01:19:30;;;;;;;;;;;12.40;99.90;;;;;;5115165;28;19940;-66
2021/07/08 01:21:56;;;;;;;;;;;12.20;99.90;;;;;;5115229;28;19907;-67
2021/07/08 01:24:23;;;;;;;;;;;12.20;99.90;;;;;;5114903;28;20314;-67
2021/07/08 01:26:51;;;;;;;;;;;12.20;99.90;;;;;;5115153;28;19912;-66
2021/07/08 01:29:18;;;;;;;;;;;12.30;99.90;;;;;;5113104;28;20366;-67
2021/07/08 01:31:44;;;;;;;;;;;12.30;99.90;;;;;;5114936;28;19908;-67
2021/07/08 01:34:11;;;;;;;;;;;12.30;99.90;;;;;;5115418;28;19918;-67
2021/07/08 01:36:38;;;;;;;;;;;12.20;99.90;;;;;;5115195;28;19915;-66
2021/07/08 01:39:05;;;;;;;;;;;12.10;99.90;;;;;;5114985;28;19920;-67
2021/07/08 01:41:32;;;;;;;;;;;12.10;99.90;;;;;;5114596;28;19908;-66
2021/07/08 01:44:00;;;;;;;;;;;12.20;99.90;;;;;;5085772;28;20389;-67
2021/07/08 01:46:27;;;;;;;;;;;12.20;99.90;;;;;;5074263;28;19916;-67
2021/07/08 01:48:54;;;;;;;;;;;12.20;99.90;;;;;;5074165;28;19999;-67
2021/07/08 01:51:23;;;;;;;;;;;12.20;99.90;;;;;;5074119;28;20359;-66
2021/07/08 01:53:50;;;;;;;;;;;12.30;99.90;;;;;;5073924;28;19919;-66
2021/07/08 01:56:17;;;;;;;;;;;12.30;99.90;;;;;;5074266;28;19948;-66
2021/07/08 01:58:44;;;;;;;;;;;12.30;99.90;;;;;;5082349;28;19912;-66
2021/07/08 02:01:11;;;;;;;;;;;12.30;99.90;;;;;;5114638;28;19914;-66
2021/07/08 02:03:38;;;;;;;;;;;12.40;99.90;;;;;;5114296;28;19920;-66
2021/07/08 02:06:05;;;;;;;;;;;12.50;99.90;;;;;;5114505;28;19908;-66
2021/07/08 02:08:32;;;;;;;;;;;12.50;99.90;;;;;;5114132;28;20282;-65
2021/07/08 02:10:59;;;;;;;;;;;12.50;99.90;;;;;;5114383;28;20259;-66
2021/07/08 02:13:25;;;;;;;;;;;12.60;99.90;;;;;;5109733;28;19923;-66
2021/07/08 02:15:52;;;;;;;;;;;12.60;99.90;;;;;;5114249;28;19911;-66
2021/07/08 02:18:19;;;;;;;;;;;12.70;99.90;;;;;;5096114;28;19912;-66
2021/07/08 02:20:45;;;;;;;;;;;12.70;99.90;;;;;;5114208;28;20446;-66
2021/07/08 02:23:12;;;;;;;;;;;12.80;99.90;;;;;;5095527;28;20006;-66
2021/07/08 02:25:39;;;;;;;;;;;12.80;99.90;;;;;;5113867;28;20014;-67
2021/07/08 02:28:05;;;;;;;;;;;12.80;99.90;;;;;;5112607;28;19912;-67
2021/07/08 02:30:32;;;;;;;;;;;12.90;99.90;;;;;;5114150;28;19911;-66
2021/07/08 02:32:59;;;;;;;;;;;12.90;99.90;;;;;;5113931;28;19907;-67
2021/07/08 02:35:26;;;;;;;;;;;13.00;99.90;;;;;;5113863;28;19920;-66
2021/07/08 02:37:53;;;;;;;;;;;13.10;99.90;;;;;;5113416;28;19912;-67
2021/07/08 02:40:22;;;;;;;;;;;13.00;99.90;;;;;;5113736;28;19947;-66
2021/07/08 02:42:52;;;;;;;;;;;13.00;99.90;;;;;;5110037;28;19924;-66
2021/07/08 02:45:23;;;;;;;;;;;13.10;99.90;;;;;;5112412;28;19927;-67
2021/07/08 02:47:51;;;;;;;;;;;13.10;99.90;;;;;;5112239;28;20405;-66
2021/07/08 02:50:18;;;;;;;;;;;13.10;99.90;;;;;;5113513;28;19914;-67
2021/07/08 02:52:45;;;;;;;;;;;13.20;99.90;;;;;;5113492;28;19968;-65
2021/07/08 02:55:12;;;;;;;;;;;13.10;99.90;;;;;;5113427;28;19912;-67
2021/07/08 02:57:45;;;;;;;;;;;13.10;99.90;;;;;;5112075;28;19912;-65
2021/07/08 03:00:13;;;;;;;;;;;13.20;99.90;;;;;;5113540;28;19908;-65
2021/07/08 03:02:42;;;;;;;;;;;13.20;99.90;;;;;;5107672;28;20324;-66
2021/07/08 03:05:10;;;;;;;;;;;13.10;99.90;;;;;;5113403;28;19969;-68
2021/07/08 03:07:37;;;;;;;;;;;13.20;99.90;;;;;;5112942;28;19942;-67
2021/07/08 03:10:05;;;;;;;;;;;13.30;99.90;;;;;;5112701;28;19960;-67
2021/07/08 03:12:31;;;;;;;;;;;13.40;99.90;;;;;;5113304;28;19965;-67
2021/07/08 03:14:58;;;;;;;;;;;13.40;99.90;;;;;;5113166;28;19908;-68
2021/07/08 03:17:25;;;;;;;;;;;13.30;99.90;;;;;;5111920;28;19916;-68
2021/07/08 03:19:51;;;;;;;;;;;13.40;99.90;;;;;;5112975;28;19908;-67
2021/07/08 03:22:18;;;;;;;;;;;13.40;99.90;;;;;;5112849;28;19908;-67
2021/07/08 03:24:45;;;;;;;;;;;13.50;99.90;;;;;;5113039;28;19916;-68
2021/07/08 03:27:11;;;;;;;;;;;13.70;99.90;;;;;;5113044;28;19908;-68
2021/07/08 03:29:38;;;;;;;;;;;13.70;99.90;;;;;;5112699;28;19908;-67
2021/07/08 03:32:05;;;;;;;;;;;13.60;99.90;;;;;;5110740;28;19960;-67
2021/07/08 03:34:32;;;;;;;;;;;13.70;99.90;;;;;;5112925;28;19908;-66
2021/07/08 03:36:59;;;;;;;;;;;13.70;99.90;;;;;;5112722;28;19915;-66
2021/07/08 03:39:25;;;;;;;;;;;13.70;99.90;;;;;;5112883;28;19908;-66
2021/07/08 03:41:52;;;;;;;;;;;13.80;99.90;;;;;;5112582;28;19908;-66
2021/07/08 03:44:19;;;;;;;;;;;13.80;99.90;;;;;;5112764;28;19973;-66
2021/07/08 03:46:46;;;;;;;;;;;13.90;99.90;;;;;;5111451;28;19924;-65
2021/07/08 03:49:12;;;;;;;;;;;13.90;99.90;;;;;;5112756;28;19923;-66
2021/07/08 03:51:40;;;;;;;;;;;14.00;99.90;;;;;;5112713;28;19908;-65
2021/07/08 03:54:07;;;;;;;;;;;13.90;99.90;;;;;;5112687;28;19907;-65
2021/07/08 03:56:34;;;;;;;;;;;14.00;99.90;;;;;;5107247;28;20378;-65
2021/07/08 03:59:00;;;;;;;;;;;14.00;99.90;;;;;;5112520;28;20805;-65
2021/07/08 04:01:27;;;;;;;;;;;14.00;99.90;;;;;;5112573;28;19908;-66
2021/07/08 04:03:54;;;;;;;;;;;14.10;99.90;;;;;;5112201;28;20251;-65
2021/07/08 04:06:20;;;;;;;;;;;14.20;99.90;;;;;;5112410;28;19953;-65
2021/07/08 04:08:47;;;;;;;;;;;14.20;99.90;;;;;;5112199;28;19918;-65
2021/07/08 04:11:13;;;;;;;;;;;14.10;99.90;;;;;;5110861;28;19912;-65
2021/07/08 04:13:40;;;;;;;;;;;14.00;99.90;;;;;;5112148;28;19912;-65
2021/07/08 04:16:07;;;;;;;;;;;14.00;99.90;;;;;;5112470;28;19967;-64
2021/07/08 04:18:33;;;;;;;;;;;13.90;99.90;;;;;;5112574;28;19931;-64
2021/07/08 04:21:00;;;;;;;;;;;13.90;99.90;;;;;;5114371;28;19915;-64
2021/07/08 04:23:27;;;;;;;;;;;13.90;99.90;;;;;;5116152;28;20335;-64
2021/07/08 04:25:53;;;;;;;;;;;13.90;99.90;;;;;;5114192;28;20258;-64
2021/07/08 04:28:20;;;;;;;;;;;14.00;99.90;;;;;;5116305;28;19973;-65
2021/07/08 04:30:47;;;;;;;;;;;14.00;99.90;;;;;;5116368;28;19914;-66
2021/07/08 04:33:13;;;;;;;;;;;14.00;99.90;;;;;;5116357;28;19946;-66
2021/07/08 04:35:40;;;;;;;;;;;13.90;99.90;;;;;;5116237;28;19908;-66
2021/07/08 04:38:11;;;;;;;;;;;13.90;99.90;;;;;;5115962;28;20154;-66
2021/07/08 04:40:38;;;;;;;;;;;13.80;99.90;;;;;;5113370;28;19908;-66
2021/07/08 04:43:05;;;;;;;;;;;13.70;99.90;;;;;;5115609;28;19973;-64
2021/07/08 04:45:32;;;;;;;;;;;14.00;99.90;;;;;;5115738;28;19931;-66
2021/07/08 04:48:00;;;;;;;;;;;13.90;99.90;;;;;;5113815;28;19908;-66
2021/07/08 04:50:27;;;;;;;;;;;13.90;99.90;;;;;;5115906;28;19912;-66
2021/07/08 04:52:54;;;;;;;;;;;13.90;99.90;;;;;;5115743;28;19998;-67
2021/07/08 04:55:22;;;;;;;;;;;14.00;99.90;;;;;;5115756;28;19976;-66
2021/07/08 04:57:53;;;;;;;;;;;14.00;99.90;;;;;;5115702;28;19940;-66
2021/07/08 05:00:21;;;;;;;;;;;14.00;99.90;;;;;;5115998;28;19955;-66
2021/07/08 05:02:49;;;;;;;;;;;14.10;99.90;;;;;;5114439;28;19915;-65
2021/07/08 05:05:16;;;;;;;;;;;14.10;99.90;;;;;;5115643;28;19919;-67
2021/07/08 05:07:43;;;;;;;;;;;14.10;99.90;;;;;;5115593;28;19976;-65
2021/07/08 05:10:13;;;;;;;;;;;14.20;99.90;;;;;;5116043;28;19908;-65
2021/07/08 05:12:40;;;;;;;;;;;14.20;99.90;;;;;;5115801;28;19968;-65
2021/07/08 05:15:08;;;;;;;;;;;14.20;99.90;;;;;;5115701;28;19908;-66
2021/07/08 05:17:35;;;;;;;;;;;14.10;99.90;;;;;;5113255;28;19998;-65
2021/07/08 05:20:03;;;;;;;;;;;14.10;99.90;;;;;;5115503;28;20343;-65
2021/07/08 05:22:32;;;;;;;;;;;14.00;99.90;;;;;;5115344;28;19930;-66
2021/07/08 05:24:59;;;;;;;;;;;14.00;99.90;;;;;;5115745;28;19923;-66
2021/07/08 05:27:26;;;;;;;;;;;14.00;99.90;;;;;;5115833;28;19908;-65
2021/07/08 05:29:53;;;;;;;;;;;13.90;99.90;;;;;;5115328;28;19942;-66
2021/07/08 05:32:20;;;;;;;;;;;13.90;99.90;;;;;;5112234;28;19908;-65
2021/07/08 05:34:48;;;;;;;;;;;13.90;99.90;;;;;;5114179;28;19916;-65
2021/07/08 05:37:15;;;;;;;;;;;13.90;99.90;;;;;;5114943;28;20266;-66
2021/07/08 05:39:42;;;;;;;;;;;13.80;99.90;;;;;;5114904;28;19907;-65
2021/07/08 05:42:09;;;;;;;;;;;13.90;99.90;;;;;;5114797;28;19918;-65
2021/07/08 05:44:35;;;;;;;;;;;13.80;99.90;;;;;;5114801;28;19916;-67
2021/07/08 05:47:02;;;;;;;;;;;13.90;99.90;;;;;;5112897;28;19969;-65
2021/07/08 05:49:29;;;;;;;;;;;13.90;99.90;;;;;;5114879;28;19916;-66
2021/07/08 05:51:55;;;;;;;;;;;13.80;99.90;;;;;;5110964;28;19933;-66
2021/07/08 05:54:22;;;;;;;;;;;13.80;99.90;;;;;;5113828;28;19912;-66
2021/07/08 05:56:49;;;;;;;;;;;13.80;99.90;;;;;;5114516;28;19907;-64
2021/07/08 05:59:15;;;;;;;;;;;13.90;99.90;;;;;;5114475;28;19908;-66
2021/07/08 06:01:42;;;;;;;;;;;14.00;99.90;;;;;;5114254;28;19907;-66
2021/07/08 06:04:09;;;;;;;;;;;14.00;99.90;;;;;;5114462;28;19972;-66
2021/07/08 06:06:35;;;;;;;;;;;13.90;99.90;;;;;;5112548;28;19912;-65
2021/07/08 06:09:02;;;;;;;;;;;13.90;99.90;;;;;;5114522;28;19987;-66
2021/07/08 06:11:30;;;;;;;;;;;13.90;99.90;;;;;;5114611;28;19908;-66
2021/07/08 06:13:57;;;;;;;;;;;13.80;99.90;;;;;;5114213;28;19915;-66
2021/07/08 06:16:24;;;;;;;;;;;13.80;99.90;;;;;;5114134;28;20409;-67
2021/07/08 06:18:50;;;;;;;;;;;13.70;99.90;;;;;;5114111;28;19931;-66
2021/07/08 06:21:17;;;;;;;;;;;13.70;99.90;;;;;;5112851;28;19908;-66
2021/07/08 06:23:44;;;;;;;;;;;13.70;99.90;;;;;;5073385;28;20321;-67
2021/07/08 06:26:10;;;;;;;;;;;13.60;99.90;;;;;;5073320;28;20363;-66
2021/07/08 06:28:38;;;;;;;;;;;13.50;99.90;;;;;;5073583;28;19954;-67
2021/07/08 06:31:05;;;;;;;;;;;13.40;99.90;;;;;;5073468;28;20364;-64
2021/07/08 06:33:32;;;;;;;;;;;13.40;99.90;;;;;;5072812;28;20547;-67
2021/07/08 06:35:58;;;;;;;;;;;13.40;99.90;;;;;;5073165;28;19951;-66
2021/07/08 06:38:25;;;;;;;;;;;13.30;99.90;;;;;;5112217;28;19912;-67
2021/07/08 06:40:53;;;;;;;;;;;13.30;99.90;;;;;;5113891;28;20338;-66
2021/07/08 06:43:20;;;;;;;;;;;13.30;99.90;;;;;;5107078;28;20281;-66
2021/07/08 06:45:47;;;;;;;;;;;13.10;99.90;;;;;;5113191;28;20339;-66
2021/07/08 06:48:15;;;;;;;;;;;13.10;99.90;;;;;;5113732;28;19908;-66
2021/07/08 06:50:43;;;;;;;;;;;13.10;99.90;;;;;;5113550;28;19908;-66
2021/07/08 06:53:10;;;;;;;;;;;13.10;99.90;;;;;;5110179;28;20255;-65
2021/07/08 06:55:37;;;;;;;;;;;13.00;99.90;;;;;;5113451;28;20052;-66
2021/07/08 06:58:05;;;;;;;;;;;13.10;99.90;;;;;;5113661;28;19908;-68
2021/07/08 07:00:38;;;;;;;;;;;13.00;99.90;;;;;;5113310;28;20373;-65
2021/07/08 07:03:05;;;;;;;;;;;12.90;99.90;;;;;;5113371;28;20484;-65
2021/07/08 07:05:32;;;;;;;;;;;12.80;99.90;;;;;;5113306;28;19919;-65
2021/07/08 07:07:59;;;;;;;;;;;12.70;99.90;;;;;;5113281;28;19915;-65
2021/07/08 07:10:27;;;;;;;;;;;12.70;99.90;;;;;;5113125;28;19907;-67
2021/07/08 07:12:55;;;;;;;;;;;12.60;99.90;;;;;;5109365;28;20300;-65
2021/07/08 07:15:23;;;;;;;;;;;12.50;99.90;;;;;;5113123;28;20002;-66
2021/07/08 07:17:50;;;;;;;;;;;12.50;99.90;;;;;;5112913;28;19951;-67
2021/07/08 07:20:18;;;;;;;;;;;12.40;99.90;;;;;;5113089;28;20018;-66
2021/07/08 07:22:47;;;;;;;;;;;12.40;99.90;;;;;;5112978;28;19915;-67
2021/07/08 07:25:15;;;;;;;;;;;12.40;99.90;;;;;;5111801;28;20258;-66
2021/07/08 07:27:42;;;;;;;;;;;12.30;99.90;;;;;;5112908;28;19908;-66
2021/07/08 07:30:08;;;;;;;;;;;12.20;99.90;;;;;;5112901;28;20358;-67
2021/07/08 07:32:35;;;;;;;;;;;12.20;99.90;;;;;;5112763;28;19908;-66
2021/07/08 07:35:03;;;;;;;;;;;12.20;99.90;;;;;;5112770;28;19986;-67
2021/07/08 07:37:30;;;;;;;;;;;12.20;99.90;;;;;;5112307;28;20060;-66
2021/07/08 07:39:57;;;;;;;;;;;12.10;99.90;;;;;;5109202;28;19908;-66
2021/07/08 07:42:24;;;;;;;;;;;12.10;99.90;;;;;;5110520;28;19919;-65
2021/07/08 07:44:51;;;;;;;;;;;12.20;99.90;;;;;;5110641;28;20002;-66
2021/07/08 07:47:18;;;;;;;;;;;12.30;99.90;;;;;;5110607;28;20012;-66
2021/07/08 07:49:44;;;;;;;;;;;12.40;99.90;;;;;;5110165;28;19915;-66
2021/07/08 07:52:13;;;;;;;;;;;12.40;99.90;;;;;;5110199;28;19908;-66
2021/07/08 07:54:40;;;;;;;;;;;12.40;99.90;;;;;;5108579;28;19908;-66
2021/07/08 07:57:08;;;;;;;;;;;12.40;99.90;;;;;;5110259;28;19930;-68
2021/07/08 07:59:36;;;;;;;;;;;12.40;99.90;;;;;;5110293;28;19934;-67
2021/07/08 08:02:02;;;;;;;;;;;12.50;99.90;;;;;;5110500;28;19912;-67
2021/07/08 08:04:31;;;;;;;;;;;12.50;99.90;;;;;;5110234;28;19942;-66
2021/07/08 08:09:43;;;;;;;;;;;12.50;99.90;;;;;;5108217;28;20000;-68
2021/07/08 08:12:10;;;;;;;;;;;12.50;99.90;;;;;;5069903;28;20033;-67
2021/07/08 08:14:37;;;;;;;;;;;12.50;99.90;;;;;;5100187;28;19996;-67
2021/07/08 08:17:04;;;;;;;;;;;12.40;99.90;;;;;;5110203;28;20363;-67
2021/07/08 08:19:30;;;;;;;;;;;12.40;99.90;;;;;;5109807;28;19908;-66
2021/07/08 08:21:57;;;;;;;;;;;12.30;99.90;;;;;;5110003;28;19908;-69
2021/07/08 08:24:24;;;;;;;;;;;12.40;99.90;;;;;;5108836;28;19966;-67
2021/07/08 08:26:52;;;;;;;;;;;12.40;99.90;;;;;;5110230;28;20022;-68
2021/07/08 08:29:22;;;;;;;;;;;12.30;99.90;;;;;;5110058;28;19930;-68
2021/07/08 08:31:49;;;;;;;;;;;12.30;99.90;;;;;;5091884;28;19957;-68
2021/07/08 08:34:16;;;;;;;;;;;12.30;99.90;;;;;;5109925;28;19933;-67
2021/07/08 08:36:44;;;;;;;;;;;12.30;99.90;;;;;;5110062;28;19916;-68
2021/07/08 08:39:11;;;;;;;;;;;12.30;99.90;;;;;;5107103;28;19951;-67
2021/07/08 08:41:38;;;;;;;;;;;12.30;99.90;;;;;;5110054;28;20540;-68
2021/07/08 08:44:05;;;;;;;;;;;12.30;99.90;;;;;;5110094;28;19924;-67
2021/07/08 08:46:33;;;;;;;;;;;12.30;99.90;;;;;;5100678;28;19916;-67
2021/07/08 08:49:04;;;;;;;;;;;12.30;99.90;;;;;;5069740;28;19912;-67
2021/07/08 08:51:31;;;;;;;;;;;12.40;99.90;;;;;;5069443;28;19909;-67
2021/07/08 08:53:58;;;;;;;;;;;12.50;99.90;;;;;;5069941;28;19908;-66
2021/07/08 08:56:27;;;;;;;;;;;12.50;99.90;;;;;;5069211;28;19909;-67
2021/07/08 08:58:53;;;;;;;;;;;12.50;99.90;;;;;;5069081;28;20007;-67
2021/07/08 09:01:20;;;;;;;;;;;12.50;99.90;;;;;;5059002;28;19919;-66
2021/07/08 09:03:47;;;;;;;;;;;12.50;99.90;;;;;;5109838;28;19918;-68
2021/07/08 09:06:15;;;;;;;;;;;12.50;99.90;;;;;;5092677;28;19931;-67
2021/07/08 09:08:47;;;;;;;;;;;12.50;99.90;;;;;;5114961;28;19907;-67
2021/07/08 09:11:14;;;;;;;;;;;12.50;99.90;;;;;;5115566;28;19919;-68
2021/07/08 09:13:46;;;;;;;;;;;12.40;99.90;;;;;;5115301;28;19912;-67
2021/07/08 09:16:17;;;;;;;;;;;12.30;99.90;;;;;;5114162;28;19922;-66
2021/07/08 09:18:44;;;;;;;;;;;12.30;99.90;;;;;;5115584;28;20370;-66
2021/07/08 09:21:18;;;;;;;;;;;12.10;99.90;;;;;;5115103;28;20418;-66
2021/07/08 09:24:08;;;;;;;;;;;12.00;99.90;;;;;;5097913;28;19924;-67
2021/07/08 09:26:36;;;;;;;;;;;12.00;99.90;;;;;;5069126;28;19913;-67
2021/07/08 09:29:07;;;;;;;;;;;12.00;99.90;;;;;;5073925;28;19919;-66
2021/07/08 09:31:35;;;;;;;;;;;12.00;99.90;;;;;;5103779;28;19927;-66
2021/07/08 09:34:19;;;;;;;;;;;12.00;99.90;;;;;;5115170;28;19908;-65
2021/07/08 09:36:48;;;;;;;;;;;11.90;99.90;;;;;;5115062;28;19907;-66
2021/07/08 09:39:15;;;;;;;;;;;11.90;99.90;;;;;;5115082;28;19915;-67
2021/07/08 09:41:47;;;;;;;;;;;11.90;99.90;;;;;;5114770;28;20329;-66
2021/07/08 09:44:24;;;;;;;;;;;12.00;99.90;;;;;;5114411;28;19924;-66
2021/07/08 09:46:51;;;;;;;;;;;11.90;99.90;;;;;;5113702;28;20065;-67
2021/07/08 09:49:18;;;;;;;;;;;11.90;99.90;;;;;;5114867;28;19907;-68
2021/07/08 09:51:45;;;;;;;;;;;11.90;99.90;;;;;;5114432;28;19915;-69
2021/07/08 09:54:25;;;;;;;;;;;11.90;99.90;;;;;;5097142;28;20380;-67
2021/07/08 09:56:54;;;;;;;;;;;11.90;99.90;;;;;;5096346;28;19907;-67
2021/07/08 09:59:21;;;;;;;;;;;11.90;99.90;;;;;;5112215;28;19919;-67
2021/07/08 10:01:56;;;;;;;;;;;11.80;99.90;;;;;;5112903;28;19967;-68
2021/07/08 10:04:23;;;;;;;;;;;11.80;99.90;;;;;;5114531;28;19937;-67
2021/07/08 10:06:50;;;;;;;;;;;11.80;99.90;;;;;;5114480;28;19908;-68
2021/07/08 10:09:18;;;;;;;;;;;11.80;99.90;;;;;;5114465;28;19907;-68
2021/07/08 10:11:51;;;;;;;;;;;11.80;99.90;;;;;;5114486;28;20331;-68
2021/07/08 10:14:18;;;;;;;;;;;11.80;99.90;;;;;;5112666;28;20346;-67
2021/07/08 10:17:03;;;;;;;;;;;11.80;99.90;;;;;;5114968;28;19908;-67
2021/07/08 10:19:30;;;;;;;;;;;11.80;99.90;;;;;;5114134;28;19907;-69
2021/07/08 10:21:56;;;;;;;;;;;11.80;99.90;;;;;;5113960;28;19908;-68
2021/07/08 10:24:23;;;;;;;;;;;11.90;99.90;;;;;;5114272;28;19920;-66
2021/07/08 10:26:50;;;;;;;;;;;11.90;99.90;;;;;;5114113;28;19985;-67
2021/07/08 10:29:17;;;;;;;;;;;11.90;99.90;;;;;;5111101;28;20334;-67
2021/07/08 10:31:47;;;;;;;;;;;11.80;99.90;;;;;;5114241;28;19908;-67
2021/07/08 10:34:15;;;;;;;;;;;11.80;99.90;;;;;;5114270;28;19960;-68
2021/07/08 10:36:52;;;;;;;;;;;11.90;99.90;;;;;;5113848;28;20309;-68
2021/07/08 10:39:22;;;;;;;;;;;11.90;99.90;;;;;;5114253;28;20328;-66
2021/07/08 10:41:50;;;;;;;;;;;11.80;99.90;;;;;;5113818;28;19908;-68
2021/07/08 10:44:35;;;;;;;;;;;11.80;99.90;;;;;;5111826;28;19927;-68
2021/07/08 10:47:02;;;;;;;;;;;11.80;99.90;;;;;;5113925;28;19908;-68
2021/07/08 10:49:39;;;;;;;;;;;11.80;99.90;;;;;;5113805;28;20003;-68
2021/07/08 10:52:09;;;;;;;;;;;11.80;99.90;;;;;;5113571;28;19908;-68
2021/07/08 10:54:37;;;;;;;;;;;11.80;99.90;;;;;;5113582;28;19914;-67
2021/07/08 10:57:04;;;;;;;;;;;11.70;99.90;;;;;;5111281;28;19916;-67
2021/07/08 10:59:45;;;;;;;;;;;11.70;99.90;;;;;;5113206;28;20319;-67
2021/07/08 11:02:38;;;;;;;;;;;11.70;99.90;;;;;;5113294;28;20282;-67
2021/07/08 11:05:05;;;;;;;;;;;11.60;99.90;;;;;;5089426;28;19994;-67
2021/07/08 11:07:44;;;;;;;;;;;11.60;99.90;;;;;;5113027;28;19908;-67
2021/07/08 11:10:11;;;;;;;;;;;11.60;99.90;;;;;;5113286;28;19911;-66
2021/07/08 11:12:40;;;;;;;;;;;11.60;99.90;;;;;;5111392;28;19935;-67
2021/07/08 11:15:07;;;;;;;;;;;11.60;99.90;;;;;;5113241;28;19952;-67
2021/07/08 11:17:41;;;;;;;;;;;11.70;99.90;;;;;;5112874;28;19973;-67
2021/07/08 11:20:29;;;;;;;;;;;11.70;99.90;;;;;;5112713;28;19911;-66
2021/07/08 11:22:56;;;;;;;;;;;11.70;99.90;;;;;;5113174;28;20328;-67
2021/07/08 11:25:40;;;;;;;;;;;11.90;99.90;;;;;;5112890;28;19919;-67
2021/07/08 11:28:29;;;;;;;;;;;11.90;99.90;;;;;;5112397;28;20355;-67
2021/07/08 11:31:00;;;;;;;;;;;11.90;99.90;;;;;;5112709;28;19908;-67
2021/07/08 11:33:28;;;;;;;;;;;11.90;99.90;;;;;;5113074;28;19908;-67
2021/07/08 11:35:59;;;;;;;;;;;11.90;99.90;;;;;;5112529;28;20322;-66
2021/07/08 11:38:26;;;;;;;;;;;11.90;99.90;;;;;;5113100;28;20385;-66
2021/07/08 11:40:54;;;;;;;;;;;11.80;99.90;;;;;;5093363;28;19916;-67
2021/07/08 11:43:22;;;;;;;;;;;11.70;99.90;;;;;;5110831;28;20002;-68
2021/07/08 11:45:53;;;;;;;;;;;11.70;99.90;;;;;;5112606;28;19923;-68
2021/07/08 11:48:26;;;;;;;;;;;11.70;99.90;;;;;;5112731;28;19908;-66
2021/07/08 11:50:53;;;;;;;;;;;11.70;99.90;;;;;;5112645;28;19969;-67
2021/07/08 11:53:20;;;;;;;;;;;11.70;99.90;;;;;;5112683;28;20415;-67
2021/07/08 11:55:48;;;;;;;;;;;11.70;99.90;;;;;;5109674;28;20008;-67
2021/07/08 11:58:22;;;;;;;;;;;11.60;99.90;;;;;;5112283;28;19908;-67
2021/07/08 12:00:50;;;;;;;;;;;11.60;99.90;;;;;;5112551;28;19939;-67
2021/07/08 12:03:30;;;;;;;;;;;11.70;99.90;;;;;;5112537;28;19908;-66
2021/07/08 12:05:58;;;;;;;;;;;11.60;99.90;;;;;;5112223;28;19945;-68
2021/07/08 12:08:26;;;;;;;;;;;11.60;99.90;;;;;;5112544;28;19961;-68
2021/07/08 12:11:10;;;;;;;;;;;11.60;99.90;;;;;;5111239;28;19923;-68
2021/07/08 12:13:46;;;;;;;;;;;11.60;99.90;;;;;;5111784;28;19907;-66
2021/07/08 12:16:13;;;;;;;;;;;11.60;99.90;;;;;;5112478;28;19919;-66
2021/07/08 12:18:47;;;;;;;;;;;11.60;99.90;;;;;;5112378;28;19919;-66
2021/07/08 12:21:24;;;;;;;;;;;11.60;99.90;;;;;;5112410;28;19957;-68
2021/07/08 12:23:51;;;;;;;;;;;11.60;99.90;;;;;;5110152;28;19972;-68
2021/07/08 12:26:22;;;;;;;;;;;11.70;99.90;;;;;;5111799;28;19969;-66
2021/07/08 12:28:49;;;;;;;;;;;11.70;99.90;;;;;;5112293;28;20015;-67
2021/07/08 12:31:18;;;;;;;;;;;11.70;99.90;;;;;;5112246;28;19920;-67
2021/07/08 12:34:02;;;;;;;;;;;11.70;99.90;;;;;;5112245;28;19908;-67
2021/07/08 12:36:29;;;;;;;;;;;11.70;99.90;;;;;;5112490;28;20303;-68
2021/07/08 12:38:56;;;;;;;;;;;11.70;99.90;;;;;;5110944;28;19912;-67
2021/07/08 12:41:22;;;;;;;;;;;11.70;99.90;;;;;;5111734;28;19968;-67
2021/07/08 12:43:50;;;;;;;;;;;11.70;99.90;;;;;;5114956;28;19930;-68
2021/07/08 12:46:16;;;;;;;;;;;11.70;99.90;;;;;;5115882;28;19908;-67
2021/07/08 12:48:43;;;;;;;;;;;11.70;99.90;;;;;;5116045;28;19911;-67
2021/07/08 12:51:10;;;;;;;;;;;11.70;99.90;;;;;;5116027;28;19911;-67
2021/07/08 12:53:37;;;;;;;;;;;11.60;99.90;;;;;;5111372;28;19918;-68
2021/07/08 12:56:10;;;;;;;;;;;11.60;99.90;;;;;;5110591;28;19916;-67
2021/07/08 12:58:37;;;;;;;;;;;11.70;99.90;;;;;;5115988;28;19908;-67
2021/07/08 13:01:04;;;;;;;;;;;11.70;99.90;;;;;;5115870;28;19907;-67
2021/07/08 13:03:32;;;;;;;;;;;11.60;99.90;;;;;;5115508;28;19950;-68
2021/07/08 13:06:12;;;;;;;;;;;11.60;99.90;;;;;;5115591;28;20369;-67
2021/07/08 13:08:38;;;;;;;;;;;11.60;99.90;;;;;;5114328;28;19911;-68
2021/07/08 13:11:08;;;;;;;;;;;11.60;99.90;;;;;;5115066;28;19915;-67
2021/07/08 13:13:37;;;;;;;;;;;11.70;99.90;;;;;;5115389;28;19999;-68
2021/07/08 13:16:04;;;;;;;;;;;11.60;99.90;;;;;;5115527;28;20389;-67
2021/07/08 13:18:34;;;;;;;;;;;11.60;99.90;;;;;;5115422;28;20358;-67
2021/07/08 13:21:11;;;;;;;;;;;11.60;99.90;;;;;;5115213;28;19908;-67
2021/07/08 13:23:38;;;;;;;;;;;11.50;99.90;;;;;;5112604;28;20316;-67
2021/07/08 13:26:09;;;;;;;;;;;11.50;99.90;;;;;;5114958;28;19908;-68
2021/07/08 13:28:36;;;;;;;;;;;11.50;99.90;;;;;;5115318;28;19908;-67
2021/07/08 13:31:02;;;;;;;;;;;11.60;99.90;;;;;;5115261;28;19908;-67
2021/07/08 13:33:34;;;;;;;;;;;11.50;99.90;;;;;;5115167;28;19950;-67
2021/07/08 13:36:05;;;;;;;;;;;11.50;99.90;;;;;;5115327;28;19908;-66
2021/07/08 13:38:33;;;;;;;;;;;11.50;99.90;;;;;;5114026;28;19912;-67
2021/07/08 13:41:11;;;;;;;;;;;11.50;99.90;;;;;;5115249;28;20003;-67
2021/07/08 13:43:44;;;;;;;;;;;11.50;99.90;;;;;;5114905;28;20400;-67
2021/07/08 13:46:12;;;;;;;;;;;11.40;99.90;;;;;;5114865;28;20359;-67
2021/07/08 13:48:40;;;;;;;;;;;11.40;99.90;;;;;;5114751;28;19934;-67
2021/07/08 13:51:07;;;;;;;;;;;11.40;99.90;;;;;;5112828;28;19924;-67
2021/07/08 13:53:34;;;;;;;;;;;11.40;99.90;;;;;;5114205;28;20277;-67
2021/07/08 13:56:01;;;;;;;;;;;11.40;99.90;;;;;;5114191;28;19934;-67
2021/07/08 13:58:27;;;;;;;;;;;11.40;99.90;;;;;;5114824;28;19940;-67
2021/07/08 14:00:55;;;;;;;;;;;11.40;99.90;;;;;;5114903;28;19912;-67
2021/07/08 14:03:21;;;;;;;;;;;11.40;99.90;;;;;;5114835;28;20305;-66
2021/07/08 14:05:48;;;;;;;;;;;11.40;99.90;;;;;;5109160;28;19973;-68
2021/07/08 14:08:18;;;;;;;;;;;11.40;99.90;;;;;;5114498;28;19953;-68
2021/07/08 14:10:45;;;;;;;;;;;11.40;99.90;;;;;;5114036;28;19908;-67
2021/07/08 14:13:11;;;;;;;;;;;11.40;99.90;;;;;;5114328;28;19930;-67
2021/07/08 14:15:38;;;;;;;;;;;11.40;99.90;;;;;;5114161;28;19915;-67
2021/07/08 14:18:05;;;;;;;;;;;11.40;99.90;;;;;;5114462;28;20268;-68
2021/07/08 14:20:31;;;;;;;;;;;11.40;99.90;;;;;;5112130;28;19919;-68
2021/07/08 14:22:58;;;;;;;;;;;11.40;99.90;;;;;;5113049;28;19956;-68
2021/07/08 14:25:25;;;;;;;;;;;11.40;99.90;;;;;;5114149;28;20019;-67